Lobo

Go HERE for most recent data if this page is not up to date.

Jump to table bottom
Date/Time Temp deg F RH % 24 Hr Snow (in) Snow Depth (in) H2O (in)
11/12 02:00 30.7 14 1.9 17.9 0.00
11/12 01:00 30.2 13 2.0 18.2 0.00
11/12 00:00 28.3 16 1.9 17.9 0.00
11/11 23:00 29.3 15 1.9 17.8 0.00
11/11 22:00 26.4 11 2.1 18.3 0.00
11/11 21:00 28.2 14 1.9 18.0 0.00
11/11 20:00 27.1 9 2.2 18.6 0.00
11/11 19:00 24.8 17 2.1 18.3 0.00
11/11 18:00 23.8 18 1.9 17.9 0.00
11/11 17:00 24.3 27 1.9 17.8 0.00
11/11 16:00 26.5 35 1.8 17.4 0.00
11/11 15:00 26.6 39 1.8 17.4 0.00
11/11 14:00 27.2 45 1.5 16.7 0.00
11/11 13:00 25.3 41 1.7 17.1 0.00
11/11 12:00 21.2 42 1.9 17.6 0.00
11/11 11:00 19.8 35 2.0 17.7 0.00
11/11 10:00 19.0 35 2.1 18.1 0.00
11/11 09:00 14.2 27 2.2 18.4 0.00
11/11 08:00 12.9 30 2.1 18.2 0.00
11/11 07:00 11.5 7 2.3 18.7 0.00
11/11 06:00 9.3 39 2.1 18.1 0.00
11/11 05:00 12.9 56 1.9 17.5 0.00
11/11 04:00 14.5 17 2.1 17.9 0.00
11/11 03:00 14.5 32 2.1 18.1 0.00
11/11 02:00 13.5 41 2.1 18.0 0.00
11/11 01:00 13.3 58 2.0 17.7 0.00
11/11 00:00 15.1 54 2.1 17.9 0.00
.